Aviation Digital Data Service (ADDS)

Output produced by METARs form (0138 UTC 23 November 2017)
found at http://www.aviationweather.gov/adds/metars/
 
TAF HLLB 222300Z 2300/2324 VRB02KT 8000 SCT025
       
TAF HLTD 222300Z 2300/2324 06008KT 8000 FEW035 SCT080 
     PROB30 
     TEMPO 2300/2306 6000 RA BKN070
       
TAF HLGT 222300Z 2300/2324 18010KT CAVOK
       
TAF HLKF 222300Z 2300/2324 02012KT CAVOK